createdAt,value
2023-05-01T00:01:50.666Z,50.38
2023-05-01T00:04:53.036Z,49.59
2023-05-01T00:07:55.038Z,51.35
2023-05-01T00:10:56.955Z,51.98
2023-05-01T00:14:00.115Z,51.48
2023-05-01T00:17:04.102Z,51.58
2023-05-01T00:20:08.032Z,50.66
2023-05-01T00:23:09.893Z,50.99
2023-05-01T00:26:11.780Z,49.62
2023-05-01T00:29:13.718Z,49.04
2023-05-01T00:32:15.663Z,51.31
2023-05-01T00:35:17.776Z,48.95
2023-05-01T00:38:19.707Z,47.79
2023-05-01T00:41:21.768Z,49.17
2023-05-01T00:44:23.834Z,49.35
2023-05-01T00:47:25.808Z,50.47
2023-05-01T00:50:27.692Z,51.28
2023-05-01T00:53:29.531Z,50.77
2023-05-01T00:56:33.692Z,50.88
2023-05-01T00:59:38.600Z,51.50
2023-05-01T01:02:41.108Z,50.82
2023-05-01T01:05:47.160Z,50.16
2023-05-01T01:08:50.228Z,49.79
2023-05-01T01:11:52.152Z,51.46
2023-05-01T01:15:12.393Z,52.00
2023-05-01T01:18:47.054Z,51.67
2023-05-01T01:21:52.451Z,51.72
2023-05-01T01:24:58.087Z,52.92
2023-05-01T01:27:59.895Z,52.59
2023-05-01T01:31:23.094Z,53.04
2023-05-01T01:34:31.954Z,53.72
2023-05-01T01:37:43.899Z,52.83
2023-05-01T01:41:07.504Z,53.14
2023-05-01T01:44:10.045Z,53.24
2023-05-01T01:47:12.535Z,55.40
2023-05-01T01:50:17.517Z,56.02
2023-05-01T01:53:19.400Z,55.53
2023-05-01T01:56:22.130Z,54.71
2023-05-01T01:59:24.360Z,55.03
2023-05-01T02:02:27.267Z,56.80
2023-05-01T02:05:31.662Z,56.76
2023-05-01T02:08:33.777Z,57.64
2023-05-01T02:11:35.791Z,58.96
2023-05-01T02:14:37.707Z,60.51
2023-05-01T02:17:41.334Z,61.48
2023-05-01T02:20:43.401Z,62.74
2023-05-01T02:23:48.700Z,60.45
2023-05-01T02:26:52.494Z,57.26
2023-05-01T02:29:54.719Z,57.86
2023-05-01T02:32:57.754Z,57.29
2023-05-01T02:35:59.850Z,59.75
2023-05-01T02:39:03.789Z,59.87
2023-05-01T02:42:12.006Z,62.09
2023-05-01T02:45:22.888Z,63.75
2023-05-01T02:48:28.102Z,63.89
2023-05-01T02:51:30.198Z,63.42
2023-05-01T02:54:32.025Z,62.77
2023-05-01T02:57:36.233Z,63.60
2023-05-01T03:00:38.152Z,63.22
2023-05-01T03:03:40.126Z,60.90
2023-05-01T03:06:42.081Z,61.82
2023-05-01T03:09:44.044Z,60.73
2023-05-01T03:12:46.063Z,61.78
2023-05-01T03:15:48.201Z,59.79
2023-05-01T03:18:56.074Z,61.15
2023-05-01T03:21:58.193Z,62.76
2023-05-01T03:25:02.450Z,65.56
2023-05-01T03:28:04.679Z,66.15
2023-05-01T03:31:07.703Z,65.80
2023-05-01T03:34:09.693Z,66.29
2023-05-01T03:37:14.326Z,66.97
2023-05-01T03:40:16.619Z,67.75
2023-05-01T03:43:18.592Z,67.41
2023-05-01T03:46:20.604Z,66.81
2023-05-01T03:49:22.834Z,68.42
2023-05-01T03:52:24.760Z,67.01
2023-05-01T03:55:26.830Z,68.47
2023-05-01T03:58:29.163Z,68.54
2023-05-01T04:01:33.655Z,69.18
2023-05-01T04:04:36.142Z,68.26
2023-05-01T04:07:41.008Z,68.21
2023-05-01T04:10:42.874Z,67.65
2023-05-01T04:13:44.740Z,65.55
2023-05-01T04:16:46.618Z,67.17
2023-05-01T04:19:51.030Z,67.19
2023-05-01T04:22:52.849Z,63.16
2023-05-01T04:25:54.891Z,63.33
2023-05-01T04:28:56.751Z,65.70
2023-05-01T04:31:59.043Z,67.62
2023-05-01T04:35:01.338Z,63.19
2023-05-01T04:38:03.198Z,62.29
2023-05-01T04:41:05.696Z,61.37
2023-05-01T04:44:07.645Z,62.06
2023-05-01T04:47:09.688Z,63.37
2023-05-01T04:50:15.971Z,65.48
2023-05-01T04:53:17.841Z,60.46
2023-05-01T04:56:19.647Z,62.31
2023-05-01T04:59:21.644Z,60.85
2023-05-01T05:02:23.590Z,61.84
2023-05-01T05:05:25.654Z,58.77
2023-05-01T05:08:27.902Z,57.17
2023-05-01T05:11:29.792Z,58.20
2023-05-01T05:14:34.133Z,55.88
2023-05-01T05:17:36.113Z,55.54
2023-05-01T05:20:38.494Z,52.59
2023-05-01T05:23:40.922Z,50.67
2023-05-01T05:26:42.955Z,47.12
2023-05-01T05:29:45.230Z,52.45
2023-05-01T05:32:47.725Z,50.49
2023-05-01T05:35:50.091Z,47.50
2023-05-01T05:38:51.939Z,48.71
2023-05-01T05:41:53.965Z,46.97
2023-05-01T05:44:57.951Z,43.73
2023-05-01T05:47:59.896Z,39.48
2023-05-01T05:51:01.787Z,44.68
2023-05-01T05:54:08.748Z,42.52
2023-05-01T05:57:10.568Z,39.55
2023-05-01T06:00:15.397Z,40.97
2023-05-01T06:03:19.729Z,39.19
2023-05-01T06:06:21.817Z,39.33
2023-05-01T06:09:23.651Z,38.47
2023-05-01T06:12:26.724Z,35.45
2023-05-01T06:15:29.577Z,37.35
2023-05-01T06:18:31.573Z,34.27
2023-05-01T06:21:33.903Z,35.55
2023-05-01T06:24:36.810Z,35.51
2023-05-01T06:27:38.758Z,31.71
2023-05-01T06:30:40.814Z,33.25
2023-05-01T06:33:45.095Z,29.99
2023-05-01T06:36:46.963Z,29.73
2023-05-01T06:39:48.853Z,30.49
2023-05-01T06:42:50.756Z,30.11
2023-05-01T06:45:52.722Z,30.36
2023-05-01T06:48:54.720Z,31.34
2023-05-01T06:51:58.512Z,29.10
2023-05-01T06:55:00.463Z,25.59
2023-05-01T06:58:12.614Z,26.19
2023-05-01T07:01:24.215Z,25.79
2023-05-01T07:04:26.214Z,25.89
2023-05-01T07:07:30.834Z,25.24
2023-05-01T07:10:32.831Z,24.57
2023-05-01T07:13:36.858Z,21.89
2023-05-01T07:16:38.829Z,24.09
2023-05-01T07:19:40.772Z,23.38
2023-05-01T07:22:43.021Z,23.78
2023-05-01T07:25:47.245Z,23.51
2023-05-01T07:28:54.582Z,23.37
2023-05-01T07:31:56.607Z,25.22
2023-05-01T07:34:58.868Z,23.70
2023-05-01T07:38:00.936Z,22.92
2023-05-01T07:41:02.884Z,22.38
2023-05-01T07:44:05.042Z,20.60
2023-05-01T07:47:08.988Z,21.55
2023-05-01T07:50:13.702Z,19.74
2023-05-01T07:53:15.514Z,20.57
2023-05-01T07:56:17.384Z,17.67
2023-05-01T07:59:19.345Z,17.92
2023-05-01T08:02:21.510Z,20.19
2023-05-01T08:05:23.355Z,18.97
2023-05-01T08:08:25.295Z,18.17
2023-05-01T08:11:29.029Z,17.81
2023-05-01T08:14:34.438Z,17.74
2023-05-01T08:17:38.888Z,19.29
2023-05-01T08:20:40.909Z,18.60
2023-05-01T08:23:43.886Z,20.96
2023-05-01T08:26:48.958Z,19.17
2023-05-01T08:29:50.889Z,19.56
2023-05-01T08:32:53.136Z,18.26
2023-05-01T08:35:55.419Z,20.08
2023-05-01T08:38:57.393Z,19.90
2023-05-01T08:41:59.555Z,19.69
2023-05-01T08:45:01.778Z,20.61
2023-05-01T08:48:07.160Z,20.76
2023-05-01T08:51:09.110Z,20.78
2023-05-01T08:54:11.180Z,18.34
2023-05-01T08:57:13.170Z,16.55
2023-05-01T09:00:18.717Z,17.82
2023-05-01T09:03:20.998Z,17.75
2023-05-01T09:06:28.307Z,16.08
2023-05-01T09:09:30.647Z,15.82
2023-05-01T09:12:35.503Z,17.05
2023-05-01T09:15:37.441Z,19.12
2023-05-01T09:18:41.615Z,20.09
2023-05-01T09:21:43.482Z,18.08
2023-05-01T09:24:45.595Z,19.51
2023-05-01T09:27:47.935Z,19.11
2023-05-01T09:30:51.597Z,17.96
2023-05-01T09:33:56.701Z,17.76
2023-05-01T09:36:58.629Z,18.27
2023-05-01T09:40:07.742Z,18.47
2023-05-01T09:43:11.687Z,17.25
2023-05-01T09:46:16.112Z,16.82
2023-05-01T09:49:18.044Z,17.52
2023-05-01T09:52:19.968Z,17.03
2023-05-01T09:55:26.060Z,17.30
2023-05-01T09:58:28.406Z,17.79
2023-05-01T10:01:40.084Z,17.77
2023-05-01T10:04:49.659Z,14.98
2023-05-01T10:07:56.720Z,15.67
2023-05-01T10:11:08.338Z,15.93
2023-05-01T10:14:12.953Z,17.64
2023-05-01T10:17:19.885Z,13.90
2023-05-01T10:20:22.056Z,13.76
2023-05-01T10:23:25.438Z,14.11
2023-05-01T10:26:27.282Z,14.31
2023-05-01T10:29:29.188Z,14.51
2023-05-01T10:32:32.563Z,16.00
2023-05-01T10:35:38.400Z,12.95
2023-05-01T10:38:45.703Z,13.15
2023-05-01T10:42:06.278Z,12.79
2023-05-01T10:45:27.729Z,14.17
2023-05-01T10:48:41.728Z,13.46
2023-05-01T10:52:02.837Z,14.24
2023-05-01T10:55:23.521Z,13.98
2023-05-01T10:58:37.492Z,15.50
2023-05-01T11:01:45.462Z,15.27
2023-05-01T11:04:49.272Z,14.92
2023-05-01T11:08:12.608Z,17.97
2023-05-01T11:11:17.311Z,17.65
2023-05-01T11:14:19.413Z,20.19
2023-05-01T11:17:40.003Z,18.66
2023-05-01T11:20:49.315Z,16.96
2023-05-01T11:23:52.152Z,17.75
2023-05-01T11:26:54.001Z,16.41
2023-05-01T11:29:55.908Z,16.05
2023-05-01T11:32:59.379Z,14.26
2023-05-01T11:36:02.400Z,15.92
2023-05-01T11:39:04.288Z,14.37
2023-05-01T11:42:06.797Z,16.93
2023-05-01T11:45:11.186Z,14.12
2023-05-01T11:48:16.644Z,17.31
2023-05-01T11:51:20.537Z,15.09
2023-05-01T11:54:22.385Z,15.56
2023-05-01T11:57:24.259Z,13.58
2023-05-01T12:00:36.948Z,11.74
2023-05-01T12:03:42.821Z,12.30
2023-05-01T12:06:45.498Z,12.10
2023-05-01T12:09:50.067Z,12.47
2023-05-01T12:12:54.395Z,12.19
2023-05-01T12:15:56.391Z,11.92
2023-05-01T12:18:59.470Z,11.42
2023-05-01T12:22:10.451Z,12.02
2023-05-01T12:25:14.495Z,13.30
2023-05-01T12:28:18.241Z,11.89
2023-05-01T12:31:22.583Z,15.10
2023-05-01T12:34:29.653Z,14.14
2023-05-01T12:37:32.145Z,16.18
2023-05-01T12:40:34.041Z,15.80
2023-05-01T12:43:39.283Z,17.90
2023-05-01T12:46:41.395Z,20.38
2023-05-01T12:49:43.339Z,18.59
2023-05-01T12:52:45.500Z,19.12
2023-05-01T12:55:50.447Z,19.86
2023-05-01T12:58:53.801Z,21.12
2023-05-01T13:02:05.706Z,20.82
2023-05-01T13:05:10.867Z,20.74
2023-05-01T13:08:17.948Z,23.12
2023-05-01T13:11:22.513Z,22.19
2023-05-01T13:14:24.752Z,22.35
2023-05-01T13:17:26.926Z,21.99
2023-05-01T13:20:34.382Z,22.53
2023-05-01T13:23:39.216Z,21.96
2023-05-01T13:26:41.387Z,21.94
2023-05-01T13:29:44.798Z,22.54
2023-05-01T13:32:47.222Z,22.31
2023-05-01T13:35:49.267Z,21.92
2023-05-01T13:38:53.625Z,20.94
2023-05-01T13:41:58.420Z,22.77
2023-05-01T13:45:00.477Z,22.50
2023-05-01T13:48:03.130Z,22.59
2023-05-01T13:51:05.103Z,22.44
2023-05-01T13:54:10.660Z,22.20
2023-05-01T13:57:12.602Z,22.56
2023-05-01T14:00:16.618Z,22.93
2023-05-01T14:03:22.010Z,22.88
2023-05-01T14:06:29.023Z,22.94
2023-05-01T14:09:31.115Z,22.22
2023-05-01T14:12:35.390Z,22.34
2023-05-01T14:15:37.329Z,21.87
2023-05-01T14:18:45.823Z,21.75
2023-05-01T14:21:48.057Z,21.62
2023-05-01T14:24:51.219Z,21.92
2023-05-01T14:27:55.730Z,22.02
2023-05-01T14:30:57.786Z,22.86
2023-05-01T14:34:06.192Z,21.77
2023-05-01T14:37:11.468Z,22.59
2023-05-01T14:40:13.667Z,21.58
2023-05-01T14:43:22.515Z,22.42
2023-05-01T14:46:38.333Z,22.12
2023-05-01T14:49:42.571Z,22.01
2023-05-01T14:52:49.101Z,22.81
2023-05-01T14:55:51.609Z,22.77
2023-05-01T14:58:53.565Z,23.97
2023-05-01T15:01:59.743Z,22.27
2023-05-01T15:05:01.650Z,22.86
2023-05-01T15:08:04.459Z,22.61
2023-05-01T15:11:06.558Z,23.06
2023-05-01T15:14:08.549Z,21.86
2023-05-01T15:17:10.715Z,22.11
2023-05-01T15:20:13.097Z,23.83
2023-05-01T15:23:18.193Z,22.29
2023-05-01T15:26:20.587Z,22.60
2023-05-01T15:29:22.501Z,22.78
2023-05-01T15:32:24.488Z,22.84
2023-05-01T15:35:26.585Z,22.78
2023-05-01T15:38:28.563Z,23.62
2023-05-01T15:41:34.182Z,22.69
2023-05-01T15:44:38.447Z,23.30
2023-05-01T15:47:42.482Z,22.69
2023-05-01T15:50:45.561Z,22.58
2023-05-01T15:53:51.672Z,23.12
2023-05-01T15:56:56.281Z,22.85
2023-05-01T15:59:58.646Z,22.89
2023-05-01T16:03:01.147Z,22.81
2023-05-01T16:06:04.829Z,22.84
2023-05-01T16:09:06.986Z,23.26
2023-05-01T16:12:09.010Z,23.22
2023-05-01T16:15:13.878Z,24.05
2023-05-01T16:18:20.888Z,23.77
2023-05-01T16:21:23.332Z,23.22
2023-05-01T16:24:25.166Z,23.62
2023-05-01T16:27:27.942Z,23.11
2023-05-01T16:30:29.835Z,22.89
2023-05-01T16:33:32.398Z,23.48
2023-05-01T16:36:34.922Z,23.66
2023-05-01T16:39:41.064Z,23.73
2023-05-01T16:42:44.887Z,24.25
2023-05-01T16:45:47.576Z,24.04
2023-05-01T16:48:49.605Z,23.53
2023-05-01T16:51:56.491Z,23.56
2023-05-01T16:54:59.566Z,23.55
2023-05-01T16:58:01.544Z,23.57
2023-05-01T17:01:03.400Z,23.43
2023-05-01T17:04:07.877Z,23.55
2023-05-01T17:07:09.978Z,23.77
2023-05-01T17:10:14.934Z,23.29
2023-05-01T17:13:19.897Z,23.56
2023-05-01T17:16:22.024Z,22.91
2023-05-01T17:19:24.456Z,23.32
2023-05-01T17:22:28.992Z,23.58
2023-05-01T17:25:33.244Z,23.41
2023-05-01T17:28:37.435Z,23.02
2023-05-01T17:31:39.448Z,24.41
2023-05-01T17:34:46.263Z,24.47
2023-05-01T17:37:48.230Z,23.55
2023-05-01T17:40:50.240Z,24.33
2023-05-01T17:43:55.270Z,23.54
2023-05-01T17:46:57.078Z,23.50
2023-05-01T17:50:02.319Z,23.55
2023-05-01T17:53:04.756Z,24.36
2023-05-01T17:56:06.764Z,24.29
2023-05-01T17:59:08.624Z,24.95
2023-05-01T18:02:11.244Z,24.61
2023-05-01T18:05:13.367Z,24.38
2023-05-01T18:08:18.177Z,25.10
2023-05-01T18:11:20.064Z,25.32
2023-05-01T18:14:25.130Z,24.86
2023-05-01T18:17:27.067Z,24.48
2023-05-01T18:20:31.875Z,25.79
2023-05-01T18:23:34.374Z,24.56
2023-05-01T18:26:36.651Z,25.58
2023-05-01T18:29:40.847Z,25.36
2023-05-01T18:32:48.574Z,24.17
2023-05-01T18:35:50.984Z,25.21
2023-05-01T18:38:53.414Z,24.78
2023-05-01T18:41:57.134Z,25.60
2023-05-01T18:44:59.332Z,26.45
2023-05-01T18:48:01.241Z,25.56
2023-05-01T18:51:09.031Z,26.35
2023-05-01T18:54:16.839Z,26.13
2023-05-01T18:57:19.012Z,26.44
2023-05-01T19:00:21.475Z,26.31
2023-05-01T19:03:26.529Z,26.08
2023-05-01T19:06:28.621Z,25.45
2023-05-01T19:09:33.232Z,26.47
2023-05-01T19:12:39.139Z,26.34
2023-05-01T19:15:45.048Z,26.42
2023-05-01T19:18:50.097Z,27.20
2023-05-01T19:21:52.434Z,27.32
2023-05-01T19:24:54.269Z,26.61
2023-05-01T19:27:57.888Z,27.45
2023-05-01T19:30:59.999Z,27.37
2023-05-01T19:34:01.858Z,28.41
2023-05-01T19:37:03.862Z,28.44
2023-05-01T19:40:06.390Z,29.30
2023-05-01T19:43:08.588Z,27.95
2023-05-01T19:46:12.985Z,27.69
2023-05-01T19:49:19.049Z,27.34
2023-05-01T19:52:21.192Z,27.25
2023-05-01T19:55:23.176Z,27.15
2023-05-01T19:58:26.802Z,27.25
2023-05-01T20:01:31.339Z,27.48
2023-05-01T20:04:33.520Z,27.86
2023-05-01T20:07:35.441Z,27.72
2023-05-01T20:10:37.347Z,28.96
2023-05-01T20:13:39.259Z,28.35
2023-05-01T20:16:41.183Z,28.30
2023-05-01T20:19:46.197Z,28.69
2023-05-01T20:22:50.853Z,28.66
2023-05-01T20:25:57.700Z,29.41
2023-05-01T20:29:00.211Z,28.71
2023-05-01T20:32:02.356Z,29.20
2023-05-01T20:35:04.288Z,29.29
2023-05-01T20:38:06.272Z,29.55
2023-05-01T20:41:10.533Z,29.26
2023-05-01T20:44:12.512Z,28.89
2023-05-01T20:47:15.001Z,29.49
2023-05-01T20:50:17.906Z,29.60
2023-05-01T20:53:24.377Z,29.18
2023-05-01T20:56:26.288Z,30.43
2023-05-01T20:59:28.280Z,30.31
2023-05-01T21:02:37.463Z,31.19
2023-05-01T21:05:39.384Z,29.48
2023-05-01T21:08:41.602Z,31.52
2023-05-01T21:11:43.455Z,32.52
2023-05-01T21:14:45.261Z,32.62
2023-05-01T21:17:47.286Z,33.04
2023-05-01T21:20:49.263Z,31.96
2023-05-01T21:23:51.155Z,31.83
2023-05-01T21:26:55.988Z,31.07
2023-05-01T21:29:58.732Z,29.54
2023-05-01T21:33:01.729Z,30.96
2023-05-01T21:36:06.503Z,31.50
2023-05-01T21:39:08.382Z,31.13
2023-05-01T21:42:10.992Z,31.53
2023-05-01T21:45:22.149Z,33.53
2023-05-01T21:48:32.394Z,31.39
2023-05-01T21:51:34.501Z,31.12
2023-05-01T21:54:37.975Z,32.72
2023-05-01T21:57:39.969Z,32.91
2023-05-01T22:00:41.937Z,32.43
2023-05-01T22:03:44.554Z,31.87
2023-05-01T22:06:46.745Z,32.95
2023-05-01T22:09:48.827Z,33.24
2023-05-01T22:12:53.563Z,34.13
2023-05-01T22:15:56.093Z,34.41
2023-05-01T22:19:00.375Z,32.51
2023-05-01T22:22:02.406Z,33.34
2023-05-01T22:25:04.671Z,35.52
2023-05-01T22:28:07.829Z,33.06
2023-05-01T22:31:09.970Z,35.62
2023-05-01T22:34:11.930Z,34.77
2023-05-01T22:37:16.486Z,34.28
2023-05-01T22:40:18.322Z,33.54
2023-05-01T22:43:20.222Z,36.48
2023-05-01T22:46:28.115Z,35.24
2023-05-01T22:49:30.285Z,34.83
2023-05-01T22:52:34.345Z,37.08
2023-05-01T22:55:36.868Z,36.87
2023-05-01T22:58:38.824Z,35.34
2023-05-01T23:01:40.916Z,36.31
2023-05-01T23:04:46.158Z,34.80
2023-05-01T23:07:48.163Z,36.48
2023-05-01T23:10:50.058Z,36.43
2023-05-01T23:13:52.309Z,34.88
2023-05-01T23:16:54.161Z,36.40
2023-05-01T23:19:59.854Z,36.84
2023-05-01T23:23:06.457Z,37.53
2023-05-01T23:26:08.295Z,35.61
2023-05-01T23:29:12.702Z,36.42
2023-05-01T23:32:21.579Z,38.25
2023-05-01T23:35:26.184Z,36.28
2023-05-01T23:38:28.126Z,38.77
2023-05-01T23:41:30.073Z,37.38
2023-05-01T23:44:31.975Z,36.70
2023-05-01T23:47:34.001Z,35.46
2023-05-01T23:50:35.949Z,35.62
2023-05-01T23:53:37.844Z,36.28
2023-05-01T23:56:39.664Z,37.31
2023-05-01T23:59:41.644Z,36.18
